Flight Track Log - Related Links

Times and Time Zones

All times are in EDT time to prevent confusion due to time zone crossing. See the DAL268 flight status page for this flight to view local times or setup timezone preferences in your user account.

Time Position Orientation Groundspeed Altitude Reporting Facility
EDT Latitude Longitude Course Direction KTS MPH feet Rate Location/Type
Mon 02:40:37 PM 37.6100 -122.3790 360° North 84 97  Level FlightAware ADS-B
Mon 02:41:03 PM 37.6243 -122.3690 29° Northeast 172 198 200 1,171 Climbing FlightAware ADS-B
Mon 02:41:18 PM 37.6349 -122.3620 28° Northeast 169 194 800 2,400 Climbing FlightAware ADS-B
Mon 02:41:23 PM 37.6385 -122.3590 33° Northeast 176 203 1,000 2,182 Climbing FlightAware ADS-B
Mon 02:41:29 PM 37.6421 -122.3560 33° Northeast 177 204 1,200 2,400 Climbing FlightAware ADS-B
Mon 02:41:33 PM 37.6443 -122.3530 47° Northeast 177 204 1,400 2,400 Climbing FlightAware ADS-B
Mon 02:41:44 PM 37.6508 -122.3440 48° Northeast 184 212 1,800 1,500 Climbing FlightAware ADS-B
Mon 02:42:01 PM 37.6621 -122.3300 44° Northeast 211 243 2,100 1,273 Climbing FlightAware ADS-B
Mon 02:42:17 PM 37.6735 -122.3160 44° Northeast 230 265 2,500 1,600 Climbing FlightAware ADS-B
Mon 02:42:31 PM 37.6847 -122.3030 43° Northeast 245 282 2,900 1,765 Climbing FlightAware ADS-B
Mon 02:42:51 PM 37.7023 -122.2810 45° Northeast 263 303 3,500 1,818 Climbing FlightAware ADS-B
Mon 02:43:04 PM 37.7140 -122.2680 41° Northeast 274 315 3,900 2,531 Climbing FlightAware ADS-B
Mon 02:43:55 PM 37.7646 -122.2160 39° Northeast 286 329 6,200 2,696 Climbing FlightAware ADS-B
Mon 02:44:13 PM 37.7840 -122.1970 38° Northeast 293 337 7,000 2,200 Climbing FlightAware ADS-B
Mon 02:44:25 PM 37.7969 -122.1850 36° Northeast 303 349 7,300 2,444 Climbing FlightAware ADS-B
Mon 02:44:40 PM 37.8138 -122.1680 38° Northeast 299 344 8,100 3,200 Climbing FlightAware ADS-B
Mon 02:44:55 PM 37.8302 -122.1510 39° Northeast 296 341 8,900 3,188 Climbing FlightAware ADS-B
Mon 02:45:12 PM 37.8486 -122.1340 36° Northeast 296 341 9,800 2,500 Climbing FlightAware ADS-B
Mon 02:45:43 PM 37.8820 -122.1020 37° Northeast 309 356 10,900 1,770 Climbing FlightAware ADS-B
Mon 02:46:13 PM 37.9178 -122.0660 38° Northeast 336 387 11,600 1,400 Climbing FlightAware ADS-B
Mon 02:46:43 PM 37.9569 -122.0290 37° Northeast 358 412 12,300 1,770 Climbing FlightAware ADS-B
Mon 02:47:14 PM 37.9984 -121.9890 37° Northeast 368 423 13,400 2,226 Climbing FlightAware ADS-B
Mon 02:47:45 PM 38.0400 -121.9480 38° Northeast 374 430 14,600 2,044 Climbing FlightAware ADS-B
Mon 02:48:45 PM 38.1240 -121.8660 38° Northeast 392 451 16,500 1,958 Climbing FlightAware ADS-B
Mon 02:49:20 PM 38.1730 -121.8180 38° Northeast 400 460 17,700 2,063 Climbing FlightAware ADS-B
Mon 02:49:49 PM 38.2180 -121.7740 38° Northeast 405 466 18,700 1,944 Climbing FlightAware ADS-B
Mon 02:50:31 PM 38.2810 -121.7120 38° Northeast 414 476 20,000 1,865 Climbing FlightAware ADS-B
Mon 02:51:03 PM 38.3310 -121.6630 38° Northeast 421 484 21,000 1,588 Climbing FlightAware ADS-B
Mon 02:51:39 PM 38.3840 -121.6100 38° Northeast 431 496 21,800 1,417 Climbing FlightAware ADS-B
Mon 02:52:15 PM 38.4410 -121.5490 40° Northeast 440 506 22,700 1,583 Climbing FlightAware ADS-B
Mon 02:52:51 PM 38.4880 -121.4780 50° Northeast 442 509 23,700 1,636 Climbing FlightAware ADS-B
Mon 02:53:32 PM 38.5390 -121.3890 54° Northeast 447 514 24,800 1,541 Climbing FlightAware ADS-B
Mon 02:54:05 PM 38.5790 -121.3210 53° Northeast 452 520 25,600 1,457 Climbing FlightAware ADS-B
Mon 02:54:42 PM 38.6260 -121.2390 54° Northeast 457 526 26,500 1,352 Climbing FlightAware ADS-B
Mon 02:55:16 PM 38.6680 -121.1660 54° Northeast 461 531 27,200 1,286 Climbing FlightAware ADS-B
Mon 02:55:52 PM 38.7130 -121.0880 54° Northeast 466 536 28,000 1,333 Climbing FlightAware ADS-B
Mon 02:56:28 PM 38.7600 -121.0060 54° Northeast 468 539 28,800 1,565 Climbing FlightAware ADS-B
Mon 02:57:01 PM 38.8010 -120.9350 53° Northeast 464 534 29,800 1,676 Climbing FlightAware ADS-B
Mon 02:57:36 PM 38.8470 -120.8560 53° Northeast 464 534 30,700 1,043 Climbing FlightAware ADS-B
Mon 02:58:10 PM 38.8910 -120.7800 53° Northeast 473 544 31,000 250 Climbing FlightAware ADS-B
Mon 02:58:48 PM 38.9360 -120.6940 56° Northeast 466 536 31,000  Level FlightAware ADS-B
Mon 02:59:22 PM 38.9700 -120.6080 63° Northeast 466 536 31,000  Level FlightAware ADS-B
Mon 02:59:56 PM 39.0030 -120.5260 63° Northeast 465 535 31,000  Level FlightAware ADS-B
Mon 03:00:32 PM 39.0370 -120.4360 64° Northeast 465 535 31,000  Level FlightAware ADS-B
Mon 03:01:08 PM 39.0700 -120.3480 64° Northeast 465 535 31,000  Level FlightAware ADS-B
Mon 03:01:42 PM 39.1030 -120.2610 64° Northeast 466 536 31,000  Level FlightAware ADS-B
Mon 03:02:16 PM 39.1350 -120.1760 64° Northeast 465 535 31,000 91 Level FlightAware ADS-B
Mon 03:02:48 PM 39.1640 -120.0990 64° Northeast 468 539 31,100 833 Climbing FlightAware ADS-B
Mon 03:03:28 PM 39.2030 -119.9960 64° Northeast 470 541 32,000 1,457 Climbing FlightAware ADS-B
Mon 03:03:58 PM 39.2320 -119.9210 63° Northeast 466 536 32,800 1,364 Climbing FlightAware ADS-B
Mon 03:04:34 PM 39.2670 -119.8320 63° Northeast 467 537 33,500 1,184 Climbing FlightAware ADS-B
Mon 03:05:14 PM 39.3060 -119.7330 63° Northeast 466 536 34,300 1,167 Climbing FlightAware ADS-B
Mon 03:05:46 PM 39.3370 -119.6540 63° Northeast 467 537 34,900 938 Climbing FlightAware ADS-B
Mon 03:06:18 PM 39.3720 -119.5770 60° Northeast 475 547 35,300 833 Climbing FlightAware ADS-B
Mon 03:06:58 PM 39.4300 -119.4900 49° Northeast 477 549 35,900 1,000 Climbing FlightAware ADS-B
Mon 03:07:30 PM 39.4750 -119.4210 50° Northeast 472 543 36,500 957 Climbing FlightAware ADS-B
Mon 03:08:07 PM 39.5140 -119.3350 60° Northeast 468 539 37,000 405 Climbing FlightAware ADS-B
Mon 03:08:44 PM 39.5500 -119.2360 65° Northeast 466 536 37,000  Level FlightAware ADS-B
Mon 03:09:14 PM 39.5770 -119.1630 64° Northeast 465 535 37,000  Level FlightAware ADS-B
Mon 03:09:52 PM 39.6130 -119.0660 64° Northeast 468 539 37,000  Level FlightAware ADS-B
Mon 03:10:26 PM 39.6440 -118.9790 65° Northeast 469 540 37,000  Level FlightAware ADS-B
Mon 03:11:00 PM 39.6760 -118.8920 64° Northeast 469 540 37,000  Level FlightAware ADS-B
Mon 03:11:34 PM 39.7060 -118.8080 65° Northeast 470 541 37,000  Level FlightAware ADS-B
Mon 03:12:12 PM 39.7410 -118.7090 65° Northeast 473 544 37,000  Level FlightAware ADS-B
Mon 03:12:49 PM 39.7750 -118.6150 65° Northeast 475 547 37,000  Level FlightAware ADS-B
Mon 03:13:22 PM 39.8060 -118.5290 65° Northeast 474 545 37,000  Level FlightAware ADS-B
Mon 03:13:58 PM 39.8380 -118.4380 65° Northeast 473 544 37,000  Level FlightAware ADS-B
Mon 03:14:31 PM 39.8680 -118.3530 65° Northeast 471 542 37,000  Level FlightAware ADS-B
Mon 03:15:06 PM 39.9010 -118.2620 65° Northeast 464 534 37,000  Level FlightAware ADS-B
Mon 03:15:42 PM 39.9340 -118.1700 65° Northeast 463 533 37,000  Level FlightAware ADS-B
Mon 03:16:18 PM 39.9660 -118.0800 65° Northeast 465 535 37,000  Level FlightAware ADS-B
Mon 03:16:46 PM 39.9910 -118.0070 66° East 468 539 37,000  Level FlightAware ADS-B
Mon 03:17:26 PM 40.0280 -117.9040 65° Northeast 470 541 37,000  Level FlightAware ADS-B
Mon 03:18:04 PM 40.0620 -117.8070 65° Northeast 467 537 37,000  Level FlightAware ADS-B
Mon 03:18:39 PM 40.0870 -117.7370 65° Northeast 467 537 37,000  Level FlightAware ADS-B
Mon 03:19:15 PM 40.1150 -117.6590 65° Northeast 467 537 37,000  Level FlightAware ADS-B
Mon 03:19:51 PM 40.1430 -117.5810 65° Northeast 467 537 37,000  Level FlightAware ADS-B
Mon 03:20:27 PM 40.1710 -117.5020 65° Northeast 467 537 37,000  Level FlightAware ADS-B
Mon 03:21:03 PM 40.1990 -117.4240 65° Northeast 467 537 37,000  Level FlightAware ADS-B
Mon 03:21:37 PM 40.2250 -117.3500 65° Northeast 467 537 37,000  Level FlightAware ADS-B
Mon 03:22:11 PM 40.2510 -117.2760 65° Northeast 467 537 37,000  Level FlightAware ADS-B
Mon 03:22:47 PM 40.2790 -117.1970 65° Northeast 467 537 37,000  Level FlightAware ADS-B
Mon 03:23:23 PM 40.3070 -117.1180 65° Northeast 467 537 37,000  Level FlightAware ADS-B
Mon 03:23:59 PM 40.3350 -117.0400 65° Northeast 467 537 37,000  Level FlightAware ADS-B
Mon 03:24:35 PM 40.3630 -116.9610 65° Northeast 467 537 37,000  Level FlightAware ADS-B
Mon 03:25:12 PM 40.3920 -116.8800 65° Northeast 467 537 37,000  Level FlightAware ADS-B
Mon 03:25:48 PM 40.4200 -116.8020 65° Northeast 467 537 37,000  Level FlightAware ADS-B
Mon 03:26:24 PM 40.4480 -116.7230 65° Northeast 467 537 37,000  Level FlightAware ADS-B
Mon 03:27:00 PM 40.4760 -116.6440 65° Northeast 467 537 37,000  Level FlightAware ADS-B
Mon 03:27:36 PM 40.5040 -116.5650 65° Northeast 467 537 37,000  Level FlightAware ADS-B
Mon 03:28:21 PM 40.6085 -116.2100 69° East 479 551 37,000  Level FlightAware ADS-B
Mon 03:29:01 PM 40.6441 -116.1030 66° East 478 550 37,000  Level FlightAware ADS-B
Mon 03:29:31 PM 40.6705 -116.0230 66° East 475 547 37,000  Level FlightAware ADS-B
Mon 03:30:02 PM 40.6972 -115.9420 66° East 473 544 37,000  Level FlightAware ADS-B
Mon 03:30:33 PM 40.7240 -115.8600 67° East 472 543 37,000 265 Level FlightAware ADS-B
Mon 03:33:48 PM 40.8918 -115.3440 67° East 473 544 38,000 267 Climbing FlightAware ADS-B
Mon 03:34:18 PM 40.9174 -115.2650 67° East 475 547 38,000  Level FlightAware ADS-B
Mon 03:34:48 PM 40.9437 -115.1830 67° East 479 551 38,000  Level FlightAware ADS-B
Mon 03:35:18 PM 40.9698 -115.1010 67° East 484 557 38,000  Level FlightAware ADS-B
Mon 03:35:52 PM 40.9990 -115.0090 67° East 487 560 38,000  Level FlightAware ADS-B
Mon 03:36:03 PM 41.0088 -114.9790 67° East 488 562 38,000  Level FlightAware ADS-B
Mon 03:36:39 PM 41.0403 -114.8790 67° East 490 564 38,000  Level FlightAware ADS-B
Mon 03:37:11 PM 41.0685 -114.7900 67° East 492 566 38,000  Level FlightAware ADS-B
Mon 03:37:44 PM 41.0960 -114.7040 67° East 490 564 38,000  Level FlightAware ADS-B
Mon 03:37:54 PM 41.1059 -114.6710 68° East 490 564 38,000  Level FlightAware ADS-B
Mon 03:38:24 PM 41.1320 -114.5880 67° East 487 560 38,000  Level FlightAware ADS-B
Mon 03:38:55 PM 41.1584 -114.5040 67° East 486 559 38,000  Level FlightAware ADS-B
Mon 03:39:32 PM 41.1900 -114.4030 67° East 486 559 38,000  Level FlightAware ADS-B
Mon 03:39:39 PM 41.1961 -114.3830 68° East 487 560 38,000  Level FlightAware ADS-B
Mon 03:40:12 PM 41.2246 -114.2910 68° East 487 560 38,000  Level FlightAware ADS-B
Mon 03:40:48 PM 41.2551 -114.1920 68° East 487 560 38,000  Level FlightAware ADS-B
Mon 03:41:21 PM 41.2836 -114.1000 68° East 490 564 38,000  Level FlightAware ADS-B
Mon 03:41:51 PM 41.3093 -114.0160 68° East 489 563 38,000  Level FlightAware ADS-B
Mon 03:42:22 PM 41.3350 -113.9320 68° East 487 560 38,000  Level FlightAware ADS-B
Mon 03:42:41 PM 41.3508 -113.8790 68° East 485 558 38,000  Level FlightAware ADS-B
Mon 03:43:04 PM 41.3664 -113.8140 72° East 484 557 38,000  Level FlightAware ADS-B
Mon 03:43:35 PM 41.3797 -113.7220 79° East 482 555 38,000  Level FlightAware ADS-B
Mon 03:44:06 PM 41.3903 -113.6330 81° East 485 558 38,000  Level FlightAware ADS-B
Mon 03:44:36 PM 41.4012 -113.5420 81° East 487 560 38,000  Level FlightAware ADS-B
Mon 03:45:08 PM 41.4128 -113.4480 81° East 489 563 38,000  Level FlightAware ADS-B
Mon 03:45:38 PM 41.4240 -113.3590 80° East 488 562 38,000  Level FlightAware ADS-B
Mon 03:46:15 PM 41.4379 -113.2500 80° East 487 560 38,000  Level FlightAware ADS-B
Mon 03:46:46 PM 41.4492 -113.1610 80° East 482 555 38,000 188 Level FlightAware ADS-B
Mon 03:47:19 PM 41.4612 -113.0650 80° East 481 554 38,200 741 Climbing FlightAware ADS-B
Mon 03:48:07 PM 41.4786 -112.9240 81° East 478 550 39,000 571 Climbing FlightAware ADS-B
Mon 03:48:43 PM 41.4913 -112.8190 81° East 478 550 39,000  Level FlightAware ADS-B
Mon 03:49:14 PM 41.5020 -112.7300 81° East 480 552 39,000  Level FlightAware ADS-B
Mon 03:49:47 PM 41.5135 -112.6340 81° East 483 556 39,000  Level FlightAware ADS-B
Mon 03:50:18 PM 41.5244 -112.5430 81° East 486 559 39,000  Level FlightAware ADS-B
Mon 03:50:51 PM 41.5359 -112.4440 81° East 489 563 39,000  Level FlightAware ADS-B
Mon 03:51:28 PM 41.5475 -112.3330 82° East 491 565 39,000  Level FlightAware ADS-B
Mon 03:52:20 PM 41.5633 -112.1800 82° East 490 564 39,000  Level FlightAware ADS-B
Mon 03:52:51 PM 41.5730 -112.0860 82° East 488 562 39,000  Level FlightAware ADS-B
Mon 03:53:21 PM 41.5822 -111.9960 82° East 488 562 39,000  Level FlightAware ADS-B
Mon 03:53:52 PM 41.5917 -111.9030 82° East 486 559 39,000  Level FlightAware ADS-B
Mon 03:54:24 PM 41.6012 -111.8110 82° East 486 559 39,000  Level FlightAware ADS-B
Mon 03:54:55 PM 41.6107 -111.7160 82° East 487 560 39,000  Level FlightAware ADS-B
Mon 03:55:26 PM 41.6198 -111.6250 82° East 487 560 39,000  Level FlightAware ADS-B
Mon 03:55:59 PM 41.6294 -111.5270 83° East 488 562 39,000  Level FlightAware ADS-B
Mon 03:56:29 PM 41.6382 -111.4370 83° East 486 559 39,000  Level FlightAware ADS-B
Mon 03:56:59 PM 41.6469 -111.3480 83° East 485 558 39,000  Level FlightAware ADS-B
Mon 03:57:30 PM 41.6557 -111.2560 83° East 484 557 39,000  Level FlightAware ADS-B
Mon 03:58:01 PM 41.6643 -111.1660 83° East 484 557 39,000  Level FlightAware ADS-B
Mon 03:58:31 PM 41.6729 -111.0760 83° East 483 556 39,000  Level FlightAware ADS-B
Mon 03:59:23 PM 41.6870 -110.9400 82° East 482 555 39,000  Level FlightAware ADS-B
Mon 03:59:30 PM 41.6890 -110.9030 86° East 482 555 39,000  Level FlightAware ADS-B
Mon 04:00:01 PM 41.6975 -110.8110 83° East 481 554 39,000  Level FlightAware ADS-B
Mon 04:00:38 PM 41.7073 -110.7040 83° East 481 554 39,000  Level FlightAware ADS-B
Mon 04:01:29 PM 41.7200 -110.5644 83° East 480 552 39,000  Level Salt Lake Center
Mon 04:02:32 PM 41.7347 -110.3942 83° East 481 554 39,000  Level Salt Lake Center
Mon 04:03:34 PM 41.7522 -110.1942 83° East 483 556 39,000  Level Salt Lake Center
Mon 04:04:36 PM 41.7672 -110.0225 83° East 485 558 39,000  Level Salt Lake Center
Mon 04:05:38 PM 41.7839 -109.8258 83° East 477 549 39,000  Level Salt Lake Center
Mon 04:06:40 PM 41.7989 -109.6542 83° East 481 554 39,000  Level Salt Lake Center
Mon 04:07:42 PM 41.8128 -109.4819 84° East 483 556 39,000  Level Salt Lake Center
Mon 04:08:44 PM 41.8292 -109.2792 84° East 485 558 39,000  Level Salt Lake Center
Mon 04:09:46 PM 41.8419 -109.1072 84° East 482 555 39,000  Level Salt Lake Center
Mon 04:10:48 PM 41.8567 -108.9067 84° East 481 554 39,000  Level Salt Lake Center
Mon 04:11:50 PM 41.8694 -108.7317 84° East 487 560 39,000  Level Salt Lake Center
Mon 04:12:52 PM 41.8819 -108.5589 84° East 486 559 39,000  Level Salt Lake Center
Mon 04:13:54 PM 41.8978 -108.3606 84° East 478 550 39,000  Level Salt Lake Center
Mon 04:14:56 PM 41.9094 -108.1872 85° East 485 558 39,000  Level Salt Lake Center
Mon 04:15:58 PM 41.9208 -107.9808 86° East 498 573 39,000  Level Salt Lake Center
Mon 04:17:00 PM 41.9325 -107.8064 85° East 491 565 39,000  Level Salt Lake Center
Mon 04:18:02 PM 41.9464 -107.6064 85° East 485 558 39,000  Level Salt Lake Center
Mon 04:23:23 PM 42.0040 -106.6230 85° East 489 563 39,000  Level FlightAware ADS-B
Mon 04:24:04 PM 42.0110 -106.5140 85° East 490 564 39,000  Level FlightAware ADS-B
Mon 04:24:37 PM 42.0170 -106.4080 86° East 491 565 39,000  Level FlightAware ADS-B
Mon 04:25:13 PM 42.0220 -106.2870 87° East 494 568 39,000  Level FlightAware ADS-B
Mon 04:25:43 PM 42.0270 -106.2000 86° East 493 567 39,000  Level FlightAware ADS-B
Mon 04:26:19 PM 42.0320 -106.0860 87° East 493 567 39,000  Level FlightAware ADS-B
Mon 04:26:51 PM 42.0370 -105.9940 86° East 493 567 39,000  Level FlightAware ADS-B
Mon 04:27:29 PM 42.0430 -105.8740 86° East 493 567 39,000  Level FlightAware ADS-B
Mon 04:28:23 PM 42.0510 -105.7070 86° East 492 566 39,000  Level FlightAware ADS-B
Mon 04:29:14 PM 42.0570 -105.5690 87° East 492 566 39,000  Level FlightAware ADS-B
Mon 04:29:52 PM 42.0630 -105.4700 85° East 492 566 39,000  Level FlightAware ADS-B
Mon 04:30:31 PM 42.0680 -105.3150 87° East 496 571 39,000  Level FlightAware ADS-B
Mon 04:31:03 PM 42.0730 -105.2180 86° East 496 571 39,000  Level FlightAware ADS-B
Mon 04:31:42 PM 42.0803 -105.1000 85° East 490 564 39,000  Level FlightAware ADS-B
Mon 04:32:12 PM 42.0882 -105.0090 83° East 487 560 39,000  Level FlightAware ADS-B
Mon 04:32:43 PM 42.0965 -104.9150 83° East 485 558 39,000  Level FlightAware ADS-B
Mon 04:33:14 PM 42.1045 -104.8250 83° East 483 556 39,000  Level FlightAware ADS-B
Mon 04:33:44 PM 42.1124 -104.7340 83° East 483 556 39,000  Level FlightAware ADS-B
Mon 04:34:14 PM 42.1201 -104.6440 83° East 484 557 39,000  Level FlightAware ADS-B
Mon 04:34:49 PM 42.1290 -104.5390 83° East 486 559 39,000  Level FlightAware ADS-B
Mon 04:35:19 PM 42.1366 -104.4490 83° East 489 563 39,000  Level FlightAware ADS-B
Mon 04:35:50 PM 42.1442 -104.3570 84° East 487 560 39,000  Level FlightAware ADS-B
Mon 04:36:23 PM 42.1523 -104.2590 84° East 484 557 39,000  Level FlightAware ADS-B
Mon 04:36:53 PM 42.1597 -104.1670 84° East 481 554 39,000  Level FlightAware ADS-B
Mon 04:37:25 PM 42.1672 -104.0740 84° East 478 550 39,000  Level FlightAware ADS-B
Mon 04:37:55 PM 42.1744 -103.9840 84° East 476 548 39,000  Level FlightAware ADS-B
Mon 04:38:26 PM 42.1814 -103.8950 84° East 474 545 39,000  Level FlightAware ADS-B
Mon 04:39:03 PM 42.1900 -103.7850 84° East 473 544 39,000  Level FlightAware ADS-B
Mon 04:39:34 PM 42.1968 -103.6970 84° East 471 542 39,000  Level FlightAware ADS-B
Mon 04:40:04 PM 42.2036 -103.6090 84° East 473 544 39,000  Level FlightAware ADS-B
Mon 04:40:34 PM 42.2103 -103.5190 84° East 476 548 39,000  Level FlightAware ADS-B
Mon 04:41:07 PM 42.2177 -103.4210 84° East 479 551 39,000  Level FlightAware ADS-B
Mon 04:41:38 PM 42.2243 -103.3310 84° East 479 551 39,000  Level FlightAware ADS-B
Mon 04:42:10 PM 42.2313 -103.2350 84° East 476 548 39,000  Level FlightAware ADS-B
Mon 04:42:44 PM 42.2385 -103.1350 84° East 474 545 39,000  Level FlightAware ADS-B
Mon 04:43:25 PM 42.2471 -103.0150 84° East 470 541 39,000  Level FlightAware ADS-B
Mon 04:43:56 PM 42.2534 -102.9250 85° East 467 537 39,000  Level FlightAware ADS-B
Mon 04:44:27 PM 42.2596 -102.8360 85° East 466 536 39,000  Level FlightAware ADS-B
Mon 04:44:58 PM 42.2658 -102.7460 85° East 467 537 39,000  Level FlightAware ADS-B
Mon 04:45:28 PM 42.2718 -102.6590 85° East 468 539 39,000  Level FlightAware ADS-B
Mon 04:45:59 PM 42.2777 -102.5710 85° East 467 537 39,000  Level FlightAware ADS-B
Mon 04:46:31 PM 42.2839 -102.4770 85° East 465 535 39,000  Level FlightAware ADS-B
Mon 04:48:04 PM 42.3011 -102.2110 85° East 461 531 39,000  Level FlightAware ADS-B
Mon 04:48:52 PM 42.3078 -102.0903 85° East 461 531 39,000  Level Minneapolis Center
Mon 04:49:54 PM 42.3194 -101.9169 85° East 461 531 39,000  Level Minneapolis Center
Mon 04:50:56 PM 42.3289 -101.7436 86° East 463 533 39,000  Level Minneapolis Center
Mon 04:51:58 PM 42.3392 -101.5706 85° East 462 532 39,000  Level Minneapolis Center
Mon 04:53:00 PM 42.3486 -101.3981 86° East 461 531 39,000  Level Minneapolis Center
Mon 04:54:03 PM 42.3611 -101.1881 85° East 465 535 39,000  Level Minneapolis Center
Mon 04:55:05 PM 42.3694 -101.0136 86° East 465 535 39,000  Level Minneapolis Center
Mon 04:56:07 PM 42.3800 -100.8356 85° East 471 542 39,000  Level Minneapolis Center
Mon 04:57:19 PM 42.3906 -100.6183 86° East 468 539 39,000  Level Denver Center
Mon 04:58:21 PM 42.3997 -100.4503 86° East 468 539 39,000  Level Denver Center
Mon 04:59:24 PM 42.4083 -100.2575 86° East 462 532 39,000  Level Denver Center
Mon 05:00:16 PM 42.4153 -100.1072 86° East 459 528 39,000  Level Minneapolis Center
Mon 05:01:18 PM 42.4233 -99.9339 86° East 459 528 39,000  Level Minneapolis Center
Mon 05:02:20 PM 42.4317 -99.7589 86° East 463 533 39,000  Level Minneapolis Center
Mon 05:03:22 PM 42.4383 -99.5847 87° East 462 532 39,000  Level Minneapolis Center
Mon 05:04:24 PM 42.4456 -99.4125 87° East 460 529 39,000  Level Minneapolis Center
Mon 05:05:26 PM 42.4514 -99.2400 87° East 458 527 39,000  Level Minneapolis Center
Mon 05:06:28 PM 42.4578 -99.0683 87° East 457 526 39,000  Level Minneapolis Center
Mon 05:07:30 PM 42.4653 -98.8628 87° East 455 524 39,000  Level Minneapolis Center
Mon 05:08:32 PM 42.4717 -98.6944 87° East 449 517 39,000  Level Minneapolis Center
Mon 05:09:35 PM 42.4786 -98.5242 87° East 450 518 39,000  Level Minneapolis Center
Mon 05:15:29 PM 42.5250 -97.5050 87° East 451 519 39,000  Level FlightAware ADS-B
Mon 05:16:03 PM 42.5290 -97.4100 87° East 451 519 39,000  Level FlightAware ADS-B
Mon 05:16:52 PM 42.5340 -97.2780 87° East 452 520 39,000  Level FlightAware ADS-B
Mon 05:17:32 PM 42.5380 -97.1710 87° East 451 519 39,000  Level FlightAware ADS-B
Mon 05:18:12 PM 42.5430 -97.0500 87° East 449 517 39,000  Level FlightAware ADS-B
Mon 05:18:41 PM 42.5460 -96.9680 87° East 446 513 39,000  Level FlightAware ADS-B
Mon 05:19:23 PM 42.5500 -96.8490 87° East 445 512 39,000  Level FlightAware ADS-B
Mon 05:20:05 PM 42.5540 -96.7320 87° East 444 511 39,000  Level FlightAware ADS-B
Mon 05:20:39 PM 42.5570 -96.6370 88° East 442 509 39,000  Level FlightAware ADS-B
Mon 05:21:10 PM 42.5600 -96.5540 87° East 441 507 39,000  Level FlightAware ADS-B
Mon 05:21:51 PM 42.5640 -96.4400 87° East 441 507 39,000  Level FlightAware ADS-B
Mon 05:22:45 PM 42.5680 -96.2930 88° East 442 509 39,000  Level FlightAware ADS-B
Mon 05:23:36 PM 42.5730 -96.1590 87° East 444 511 39,000  Level FlightAware ADS-B
Mon 05:24:11 PM 42.5750 -96.0510 89° East 444 511 39,000  Level FlightAware ADS-B
Mon 05:24:47 PM 42.5780 -95.9540 88° East 441 507 39,000  Level FlightAware ADS-B
Mon 05:25:18 PM 42.5800 -95.8710 88° East 439 505 39,000  Level FlightAware ADS-B
Mon 05:25:48 PM 42.5820 -95.7870 88° East 440 506 39,000  Level FlightAware ADS-B
Mon 05:26:31 PM 42.5850 -95.6660 88° East 442 509 39,000  Level FlightAware ADS-B
Mon 05:27:04 PM 42.5880 -95.5760 87° East 442 509 39,000  Level FlightAware ADS-B
Mon 05:27:39 PM 42.5900 -95.4780 88° East 441 507 39,000  Level FlightAware ADS-B
Mon 05:28:09 PM 42.5920 -95.3950 88° East 441 507 39,000  Level FlightAware ADS-B
Mon 05:28:47 PM 42.5940 -95.2900 88° East 443 510 39,000  Level FlightAware ADS-B
Mon 05:29:25 PM 42.5960 -95.1840 88° East 446 513 39,000  Level FlightAware ADS-B
Mon 05:29:59 PM 42.5980 -95.0900 88° East 447 514 39,000  Level FlightAware ADS-B
Mon 05:30:35 PM 42.6000 -94.9880 88° East 449 517 39,000  Level FlightAware ADS-B
Mon 05:31:11 PM 42.6020 -94.8890 88° East 450 518 39,000  Level FlightAware ADS-B
Mon 05:31:43 PM 42.6040 -94.7970 88° East 451 519 39,000  Level FlightAware ADS-B
Mon 05:32:19 PM 42.6050 -94.6940 89° East 452 520 39,000  Level FlightAware ADS-B
Mon 05:32:57 PM 42.6070 -94.5890 88° East 452 520 39,000  Level FlightAware ADS-B
Mon 05:33:37 PM 42.6090 -94.4740 89° East 452 520 39,000  Level FlightAware ADS-B
Mon 05:34:13 PM 42.6100 -94.3710 89° East 457 526 39,000  Level FlightAware ADS-B
Mon 05:34:45 PM 42.6110 -94.2820 89° East 459 528 39,000  Level FlightAware ADS-B
Mon 05:35:23 PM 42.6120 -94.1730 89° East 459 528 39,000  Level FlightAware ADS-B
Mon 05:35:55 PM 42.6130 -94.0790 89° East 459 528 39,000  Level FlightAware ADS-B
Mon 05:36:33 PM 42.6140 -93.9710 89° East 455 524 39,000  Level FlightAware ADS-B
Mon 05:37:05 PM 42.6140 -93.8800 90° East 454 522 39,000  Level FlightAware ADS-B
Mon 05:37:41 PM 42.6150 -93.7780 89° East 453 521 39,000  Level FlightAware ADS-B
Mon 05:38:19 PM 42.6160 -93.6700 89° East 453 521 39,000  Level FlightAware ADS-B
Mon 05:38:51 PM 42.6160 -93.5780 90° East 453 521 39,000  Level FlightAware ADS-B
Mon 05:39:27 PM 42.6160 -93.4770 90° East 455 524 39,000  Level FlightAware ADS-B
Mon 05:40:03 PM 42.6170 -93.3740 89° East 458 527 39,000  Level FlightAware ADS-B
Mon 05:40:39 PM 42.6170 -93.2710 90° East 460 529 39,000  Level FlightAware ADS-B
Mon 05:41:11 PM 42.6170 -93.1780 90° East 462 532 39,000  Level FlightAware ADS-B
Mon 05:41:40 PM 42.6170 -93.0990 90° East 460 529 39,000  Level FlightAware ADS-B
Mon 05:42:21 PM 42.6160 -92.9790 91° East 459 528 39,000  Level FlightAware ADS-B
Mon 05:42:53 PM 42.6160 -92.8870 90° East 461 531 39,000  Level FlightAware ADS-B
Mon 05:43:32 PM 42.6160 -92.7720 90° East 463 533 39,000  Level FlightAware ADS-B
Mon 05:44:08 PM 42.6160 -92.6700 90° East 463 533 39,000  Level FlightAware ADS-B
Mon 05:44:40 PM 42.6150 -92.5750 91° East 464 534 39,000  Level FlightAware ADS-B
Mon 05:45:16 PM 42.6150 -92.4700 90° East 464 534 39,000  Level FlightAware ADS-B
Mon 05:45:50 PM 42.6140 -92.3710 91° East 465 535 39,000  Level FlightAware ADS-B
Mon 05:46:26 PM 42.6130 -92.2670 91° East 467 537 39,000  Level FlightAware ADS-B
Mon 05:47:02 PM 42.6120 -92.1600 91° East 471 542 39,000  Level FlightAware ADS-B
Mon 05:47:35 PM 42.6110 -92.0650 91° East 472 543 39,000  Level FlightAware ADS-B
Mon 05:48:10 PM 42.6100 -91.9620 91° East 471 542 39,000  Level FlightAware ADS-B
Mon 05:48:47 PM 42.6090 -91.8510 91° East 471 542 39,000  Level FlightAware ADS-B
Mon 05:49:23 PM 42.6080 -91.7450 91° East 469 540 39,000  Level FlightAware ADS-B
Mon 05:49:59 PM 42.6070 -91.6430 91° East 465 535 39,000  Level FlightAware ADS-B
Mon 05:50:31 PM 42.6050 -91.5490 92° East 464 534 39,000  Level FlightAware ADS-B
Mon 05:51:08 PM 42.6040 -91.4400 91° East 467 537 39,000  Level FlightAware ADS-B
Mon 05:51:39 PM 42.6020 -91.3470 92° East 470 541 39,000  Level FlightAware ADS-B
Mon 05:52:17 PM 42.6000 -91.2360 91° East 472 543 39,000  Level FlightAware ADS-B
Mon 05:52:49 PM 42.5990 -91.1430 91° East 474 545 39,000  Level FlightAware ADS-B
Mon 05:53:25 PM 42.5970 -91.0380 91° East 476 548 39,000  Level FlightAware ADS-B
Mon 05:54:04 PM 42.5950 -90.9210 91° East 476 548 39,000  Level FlightAware ADS-B
Mon 05:54:39 PM 42.5930 -90.8160 91° East 474 545 39,000  Level FlightAware ADS-B
Mon 05:55:20 PM 42.5900 -90.6960 92° East 471 542 39,000  Level FlightAware ADS-B
Mon 05:55:56 PM 42.5880 -90.5870 91° East 472 543 39,000  Level FlightAware ADS-B
Mon 05:56:26 PM 42.5860 -90.5030 92° East 474 545 39,000  Level FlightAware ADS-B
Mon 05:57:02 PM 42.5830 -90.3990 92° East 473 544 39,000  Level FlightAware ADS-B
Mon 05:57:39 PM 42.5800 -90.2860 92° East 473 544 39,000  Level FlightAware ADS-B
Mon 05:58:15 PM 42.5780 -90.1760 91° East 473 544 39,000  Level FlightAware ADS-B
Mon 05:58:50 PM 42.5750 -90.0750 92° East 473 544 39,000  Level FlightAware ADS-B
Mon 05:59:27 PM 42.5720 -89.9640 92° East 474 545 39,000  Level FlightAware ADS-B
Mon 05:59:59 PM 42.5690 -89.8670 92° East 476 548 39,000  Level FlightAware ADS-B
Mon 06:00:31 PM 42.5660 -89.7720 92° East 478 550 39,000  Level FlightAware ADS-B
Mon 06:01:12 PM 42.5630 -89.6510 92° East 480 552 39,000  Level FlightAware ADS-B
Mon 06:01:45 PM 42.5600 -89.5520 92° East 477 549 39,000  Level FlightAware ADS-B
Mon 06:02:21 PM 42.5560 -89.4440 93° East 477 549 39,000  Level FlightAware ADS-B
Mon 06:02:53 PM 42.5530 -89.3470 92° East 479 551 39,000  Level FlightAware ADS-B
Mon 06:03:29 PM 42.5490 -89.2400 93° East 483 556 39,000  Level FlightAware ADS-B
Mon 06:04:05 PM 42.5450 -89.1300 93° East 485 558 39,000  Level FlightAware ADS-B
Mon 06:04:37 PM 42.5420 -89.0330 92° East 484 557 39,000  Level FlightAware ADS-B
Mon 06:05:13 PM 42.5380 -88.9240 93° East 486 559 39,000  Level FlightAware ADS-B
Mon 06:05:52 PM 42.5340 -88.8080 93° East 485 558 39,000  Level FlightAware ADS-B
Mon 06:06:23 PM 42.5300 -88.7120 93° East 486 559 39,000  Level FlightAware ADS-B
Mon 06:06:59 PM 42.5260 -88.6030 93° East 483 556 39,000  Level FlightAware ADS-B
Mon 06:07:35 PM 42.5210 -88.4950 94° East 482 555 39,000  Level FlightAware ADS-B
Mon 06:08:09 PM 42.5170 -88.3930 93° East 482 555 39,000  Level FlightAware ADS-B
Mon 06:08:45 PM 42.5130 -88.2850 93° East 483 556 39,000  Level FlightAware ADS-B
Mon 06:09:21 PM 42.5080 -88.1770 94° East 482 555 39,000  Level FlightAware ADS-B
Mon 06:09:53 PM 42.5040 -88.0790 93° East 484 557 39,000  Level FlightAware ADS-B
Mon 06:10:29 PM 42.5000 -87.9700 93° East 487 560 39,000  Level FlightAware ADS-B
Mon 06:11:05 PM 42.5000 -87.8590 90° East 487 560 39,000  Level FlightAware ADS-B
Mon 06:11:39 PM 42.5000 -87.7560 90° East 483 556 39,000  Level FlightAware ADS-B
Mon 06:12:15 PM 42.5000 -87.6470 90° East 482 555 39,000  Level FlightAware ADS-B
Mon 06:12:52 PM 42.4990 -87.5380 91° East 481 554 39,000  Level FlightAware ADS-B
Mon 06:13:25 PM 42.4990 -87.4420 90° East 480 552 39,000  Level FlightAware ADS-B
Mon 06:14:01 PM 42.4980 -87.3310 91° East 481 554 39,000  Level FlightAware ADS-B
Mon 06:14:29 PM 42.4980 -87.2500 90° East 483 556 39,000  Level FlightAware ADS-B
Mon 06:15:08 PM 42.4970 -87.1310 91° East 482 555 39,000  Level FlightAware ADS-B
Mon 06:15:44 PM 42.4960 -87.0290 91° East 479 551 39,000  Level FlightAware ADS-B
Mon 06:16:20 PM 42.4950 -86.9160 91° East 478 550 39,000  Level FlightAware ADS-B
Mon 06:16:56 PM 42.4940 -86.8050 91° East 481 554 39,000  Level FlightAware ADS-B
Mon 06:17:29 PM 42.4930 -86.7090 91° East 483 556 39,000  Level FlightAware ADS-B
Mon 06:18:05 PM 42.4920 -86.6000 91° East 482 555 39,000  Level FlightAware ADS-B
Mon 06:18:41 PM 42.4910 -86.4930 91° East 480 552 39,000  Level FlightAware ADS-B
Mon 06:19:21 PM 42.4890 -86.3700 91° East 482 555 39,000  Level FlightAware ADS-B
Mon 06:19:56 PM 42.4870 -86.2680 91° East 482 555 39,000  Level FlightAware ADS-B
Mon 06:20:33 PM 42.4860 -86.1540 91° East 484 557 39,000  Level FlightAware ADS-B
Mon 06:21:06 PM 42.4840 -86.0520 91° East 484 557 39,000  Level FlightAware ADS-B
Mon 06:21:41 PM 42.4820 -85.9460 91° East 485 558 39,000  Level FlightAware ADS-B
Mon 06:22:17 PM 42.4800 -85.8400 91° East 487 560 39,000  Level FlightAware ADS-B
Mon 06:22:52 PM 42.4780 -85.7300 91° East 485 558 39,000  Level FlightAware ADS-B
Mon 06:23:28 PM 42.4760 -85.6210 91° East 484 557 39,000  Level FlightAware ADS-B
Mon 06:24:03 PM 42.4740 -85.5170 91° East 484 557 39,000  Level FlightAware ADS-B
Mon 06:24:36 PM 42.4720 -85.4170 92° East 482 555 39,000  Level FlightAware ADS-B
Mon 06:25:11 PM 42.4690 -85.3130 92° East 480 552 39,000  Level FlightAware ADS-B
Mon 06:25:47 PM 42.4670 -85.2060 91° East 481 554 39,000  Level FlightAware ADS-B
Mon 06:26:19 PM 42.4640 -85.1060 92° East 483 556 39,000  Level FlightAware ADS-B
Mon 06:26:54 PM 42.4620 -85.0070 92° East 484 557 39,000  Level FlightAware ADS-B
Mon 06:27:28 PM 42.4590 -84.9060 92° East 486 559 39,000  Level FlightAware ADS-B
Mon 06:28:08 PM 42.4560 -84.7840 92° East 483 556 39,000  Level FlightAware ADS-B
Mon 06:28:38 PM 42.4530 -84.6870 92° East 482 555 39,000  Level FlightAware ADS-B
Mon 06:29:12 PM 42.4490 -84.5940 93° East 481 554 39,000  Level FlightAware ADS-B
Mon 06:29:48 PM 42.4420 -84.4860 95° East 482 555 39,000  Level FlightAware ADS-B
Mon 06:30:29 PM 42.4340 -84.3570 95° East 482 555 39,000  Level FlightAware ADS-B
Mon 06:31:01 PM 42.4280 -84.2590 95° East 480 552 39,000  Level FlightAware ADS-B
Mon 06:31:37 PM 42.4220 -84.1520 94° East 479 551 39,000  Level FlightAware ADS-B
Mon 06:32:13 PM 42.4150 -84.0450 95° East 478 550 39,000  Level FlightAware ADS-B
Mon 06:32:49 PM 42.4090 -83.9360 94° East 478 550 39,000  Level FlightAware ADS-B
Mon 06:33:19 PM 42.4030 -83.8480 95° East 479 551 39,000  Level FlightAware ADS-B
Mon 06:33:57 PM 42.3960 -83.7340 95° East 480 552 39,000  Level FlightAware ADS-B
Mon 06:34:31 PM 42.3900 -83.6340 95° East 482 555 39,000  Level FlightAware ADS-B
Mon 06:35:07 PM 42.3830 -83.5260 95° East 482 555 39,000  Level FlightAware ADS-B
Mon 06:35:43 PM 42.3750 -83.4190 96° East 483 556 39,000  Level FlightAware ADS-B
Mon 06:36:19 PM 42.3680 -83.3090 95° East 482 555 39,000  Level FlightAware ADS-B
Mon 06:36:51 PM 42.3610 -83.2130 96° East 482 555 39,000  Level FlightAware ADS-B
Mon 06:37:23 PM 42.3550 -83.1180 95° East 481 554 39,000  Level FlightAware ADS-B
Mon 06:38:01 PM 42.3470 -83.0090 96° East 481 554 39,000  Level FlightAware ADS-B
Mon 06:38:37 PM 42.3390 -82.8970 95° East 481 554 39,000  Level FlightAware ADS-B
Mon 06:39:11 PM 42.3320 -82.7950 95° East 481 554 39,000  Level FlightAware ADS-B
Mon 06:39:47 PM 42.3240 -82.6880 96° East 480 552 39,000  Level FlightAware ADS-B
Mon 06:40:21 PM 42.3170 -82.5850 95° East 477 549 39,000  Level FlightAware ADS-B
Mon 06:41:01 PM 42.3080 -82.4720 96° East 476 548 39,000  Level FlightAware ADS-B
Mon 06:41:37 PM 42.3000 -82.3650 96° East 477 549 39,000  Level FlightAware ADS-B
Mon 06:42:14 PM 42.2920 -82.2540 96° East 478 550 39,000  Level FlightAware ADS-B
Mon 06:42:49 PM 42.2830 -82.1480 97° East 479 551 39,000  Level FlightAware ADS-B
Mon 06:43:30 PM 42.2750 -82.0360 95° East 476 548 39,000  Level FlightAware ADS-B
Mon 06:44:12 PM 42.2640 -81.9070 97° East 478 550 39,000  Level FlightAware ADS-B
Mon 06:44:45 PM 42.2560 -81.8080 96° East 477 549 39,000  Level FlightAware ADS-B
Mon 06:45:20 PM 42.2520 -81.7530 96° East 476 548 39,000  Level FlightAware ADS-B
Mon 06:45:51 PM 42.2450 -81.6750 97° East 477 549 39,000  Level FlightAware ADS-B
Mon 06:46:30 PM 42.2330 -81.5210 96° East 476 548 39,000  Level FlightAware ADS-B
Mon 06:47:03 PM 42.2240 -81.4220 97° East 475 547 39,000  Level FlightAware ADS-B
Mon 06:47:42 PM 42.2150 -81.3080 96° East 475 547 39,000  Level FlightAware ADS-B
Mon 06:48:11 PM 42.2070 -81.2230 97° East 475 547 39,000  Level FlightAware ADS-B
Mon 06:48:51 PM 42.1970 -81.1050 96° East 474 545 39,000  Level FlightAware ADS-B
Mon 06:49:26 PM 42.1880 -81.0070 97° East 474 545 39,000  Level FlightAware ADS-B
Mon 06:50:02 PM 42.1770 -80.8740 96° East 473 544 39,000  Level FlightAware ADS-B
Mon 06:50:35 PM 42.1700 -80.8020 97° East 471 542 39,000  Level FlightAware ADS-B
Mon 06:51:14 PM 42.1600 -80.6900 97° East 472 543 39,000  Level FlightAware ADS-B
Mon 06:51:48 PM 42.1510 -80.5890 97° East 471 542 39,000  Level FlightAware ADS-B
Mon 06:52:39 PM 42.1350 -80.4190 97° East 471 542 39,000  Level FlightAware ADS-B
Mon 06:53:16 PM 42.1260 -80.3210 97° East 472 543 39,000  Level FlightAware ADS-B
Mon 06:53:51 PM 42.1160 -80.2150 97° East 471 542 39,000  Level FlightAware ADS-B
Mon 06:54:24 PM 42.1060 -80.1190 98° East 470 541 39,000  Level FlightAware ADS-B
Mon 06:55:04 PM 42.0950 -80.0000 97° East 470 541 39,000  Level FlightAware ADS-B
Mon 06:55:40 PM 42.0840 -79.8930 98° East 469 540 39,000  Level FlightAware ADS-B
Mon 06:56:12 PM 42.0750 -79.8010 97° East 469 540 39,000  Level FlightAware ADS-B
Mon 06:56:46 PM 42.0660 -79.7070 97° East 470 541 39,000  Level FlightAware ADS-B
Mon 06:57:24 PM 42.0550 -79.6010 98° East 471 542 39,000  Level FlightAware ADS-B
Mon 06:58:00 PM 42.0440 -79.4920 98° East 471 542 39,000  Level FlightAware ADS-B
Mon 06:58:30 PM 42.0350 -79.4040 98° East 471 542 39,000  Level FlightAware ADS-B
Mon 06:59:07 PM 42.0240 -79.2970 98° East 470 541 39,000  Level FlightAware ADS-B
Mon 06:59:43 PM 42.0130 -79.1920 98° East 470 541 39,000  Level FlightAware ADS-B
Mon 07:00:20 PM 42.0020 -79.0860 98° East 472 543 39,000  Level FlightAware ADS-B
Mon 07:00:56 PM 41.9910 -78.9800 98° East 476 548 39,000  Level FlightAware ADS-B
Mon 07:01:30 PM 41.9800 -78.8810 98° East 481 554 39,000  Level FlightAware ADS-B
Mon 07:02:02 PM 41.9700 -78.7830 98° East 487 560 39,000  Level FlightAware ADS-B
Mon 07:02:40 PM 41.9580 -78.6720 98° East 488 562 39,000  Level FlightAware ADS-B
Mon 07:03:15 PM 41.9460 -78.5690 99° East 489 563 39,000  Level FlightAware ADS-B
Mon 07:03:48 PM 41.9350 -78.4680 98° East 490 564 39,000  Level FlightAware ADS-B
Mon 07:04:24 PM 41.9230 -78.3590 98° East 489 563 39,000  Level FlightAware ADS-B
Mon 07:05:00 PM 41.9110 -78.2570 99° East 488 562 39,000  Level FlightAware ADS-B
Mon 07:05:30 PM 41.9020 -78.1710 98° East 489 563 39,000  Level FlightAware ADS-B
Mon 07:06:09 PM 41.8880 -78.0540 99° East 491 565 39,000  Level FlightAware ADS-B
Mon 07:06:42 PM 41.8760 -77.9440 98° East 495 570 39,000  Level FlightAware ADS-B
Mon 07:07:19 PM 41.8590 -77.8370 102° East 495 570 39,000  Level FlightAware ADS-B
Mon 07:07:55 PM 41.8320 -77.7280 108° East 498 573 39,000  Level FlightAware ADS-B
Mon 07:08:27 PM 41.8080 -77.6360 109° East 500 575 39,000  Level FlightAware ADS-B
Mon 07:09:03 PM 41.7800 -77.5320 110° East 501 577 39,000  Level FlightAware ADS-B
Mon 07:09:39 PM 41.7530 -77.4270 109° East 501 577 39,000  Level FlightAware ADS-B
Mon 07:10:15 PM 41.7240 -77.3210 110° East 500 575 39,000  Level FlightAware ADS-B
Mon 07:10:48 PM 41.6990 -77.2260 109° East 501 577 39,000  Level FlightAware ADS-B
Mon 07:11:23 PM 41.6710 -77.1230 110° East 502 578 39,000  Level FlightAware ADS-B
Mon 07:11:59 PM 41.6440 -77.0210 109° East 504 580 39,000  Level FlightAware ADS-B
Mon 07:12:11 PM 41.6330 -76.9824 111° Southeast 507 583 39,000  Level FlightAware ADS-B
Mon 07:12:44 PM 41.6062 -76.8836 110° East 512 589 39,000  Level FlightAware ADS-B
Mon 07:13:17 PM 41.5792 -76.7850 110° East 514 592 39,000  Level FlightAware ADS-B
Mon 07:13:49 PM 41.5534 -76.6908 110° East 519 597 39,000 -94 Level FlightAware ADS-B
Mon 07:14:21 PM 41.5272 -76.5955 110° East 517 595 38,900 -484 Descending FlightAware ADS-B
Mon 07:14:51 PM 41.5026 -76.5064 110° East 514 592 38,500 -952 Descending FlightAware ADS-B
Mon 07:15:24 PM 41.4751 -76.4071 110° East 515 593 37,900 -1,015 Descending FlightAware ADS-B
Mon 07:15:56 PM 41.4493 -76.3148 110° East 515 593 37,400 -1,065 Descending FlightAware ADS-B
Mon 07:16:26 PM 41.4241 -76.2244 110° East 517 595 36,800 -1,279 Descending FlightAware ADS-B
Mon 07:16:57 PM 41.3976 -76.1301 111° Southeast 519 597 36,100 -2,032 Descending FlightAware ADS-B
Mon 07:17:28 PM 41.3719 -76.0394 111° Southeast 523 602 34,700 -2,754 Descending FlightAware ADS-B
Mon 07:17:58 PM 41.3461 -75.9474 110° East 522 601 33,300 -2,852 Descending FlightAware ADS-B
Mon 07:18:29 PM 41.3204 -75.8560 110° East 521 600 31,800 -3,097 Descending FlightAware ADS-B
Mon 07:19:00 PM 41.2941 -75.7634 111° Southeast 520 598 30,100 -3,344 Descending FlightAware ADS-B
Mon 07:19:30 PM 41.2676 -75.6747 112° Southeast 518 596 28,400 -3,049 Descending FlightAware ADS-B
Mon 07:20:01 PM 41.2384 -75.5853 113° Southeast 507 583 27,000 -2,557 Descending FlightAware ADS-B
Mon 07:20:31 PM 41.2100 -75.4999 114° Southeast 494 568 25,800 -2,557 Descending FlightAware ADS-B
Mon 07:21:02 PM 41.1817 -75.4156 114° Southeast 482 555 24,400 -2,516 Descending FlightAware ADS-B
Mon 07:21:33 PM 41.1540 -75.3335 114° Southeast 470 541 23,200 -1,292 Descending FlightAware ADS-B
Mon 07:22:07 PM 41.1237 -75.2440 114° Southeast 469 540 23,000 -182 Descending FlightAware ADS-B
Mon 07:22:39 PM 41.0958 -75.1617 114° Southeast 470 541 23,000  Level FlightAware ADS-B
Mon 07:23:09 PM 41.0685 -75.0817 114° Southeast 470 541 23,000  Level FlightAware ADS-B
Mon 07:23:39 PM 41.0415 -75.0024 114° Southeast 475 547 23,000  Level FlightAware ADS-B
Mon 07:24:10 PM 41.0141 -74.9216 114° Southeast 474 545 23,000  Level FlightAware ADS-B
Mon 07:24:17 PM 41.0083 -74.9019 111° Southeast 23,000  Level FlightAware ADS-B
Mon 07:24:29 PM 41.0002 -74.8698 108° East 474 545 23,000  Level FlightAware ADS-B
Mon 07:24:43 PM 40.9927 -74.8305 104° East 474 545 23,000  Level FlightAware ADS-B
Mon 07:24:53 PM 40.9885 -74.8015 101° East 474 545 23,000 -500 Level FlightAware ADS-B
Mon 07:25:07 PM 40.9835 -74.7610 99° East 473 544 22,800 -1,467 Descending FlightAware ADS-B
Mon 07:25:38 PM 40.9742 -74.6740 98° East 471 542 21,900 -2,066 Descending FlightAware ADS-B
Mon 07:26:08 PM 40.9652 -74.5888 98° East 462 532 20,700 -1,900 Descending FlightAware ADS-B
Mon 07:26:38 PM 40.9565 -74.5070 98° East 437 503 20,000 -1,600 Descending FlightAware ADS-B
Mon 07:27:08 PM 40.9478 -74.4272 98° East 426 490 19,100 -984 Descending FlightAware ADS-B
Mon 07:27:39 PM 40.9392 -74.3497 98° East 422 486 19,000 -97 Descending FlightAware ADS-B
Mon 07:28:10 PM 40.9304 -74.2711 98° East 430 495 19,000  Level FlightAware ADS-B
Mon 07:28:24 PM 40.9261 -74.2334 99° East 431 496 19,000  Level FlightAware ADS-B
Mon 07:28:39 PM 40.9218 -74.1966 99° East 417 480 19,000  Level FlightAware ADS-B
Mon 07:28:50 PM 40.9174 -74.1696 102° East 409 471 19,000 316 Level FlightAware ADS-B
Mon 07:28:58 PM 40.9119 -74.1488 109° East 412 474 19,100  Climbing FlightAware ADS-B
Mon 07:29:05 PM 40.9067 -74.1334 114° Southeast 412 474 19,000 -1,091 Descending FlightAware ADS-B
Mon 07:29:09 PM 40.9036 -74.1256 118° Southeast 412 474 18,900 -1,846 Descending FlightAware ADS-B
Mon 07:29:18 PM 40.8935 -74.1042 122° Southeast 421 484 18,600 -1,500 Descending FlightAware ADS-B
Mon 07:29:21 PM 40.8906 -74.0990 126° Southeast 423 487 18,600 -923 Level FlightAware ADS-B
Mon 07:29:31 PM 40.8780 -74.0794 130° Southeast 432 497 18,400 -1,200 Descending FlightAware ADS-B
Mon 07:29:36 PM 40.8701 -74.0692 136° Southeast 437 503 18,300 -857 Descending FlightAware ADS-B
Mon 07:29:45 PM 40.8561 -74.0540 141° Southeast 442 509 18,200 -500 Descending FlightAware ADS-B
Mon 07:29:48 PM 40.8518 -74.0499 144° Southeast 443 510 18,200 -857 Level FlightAware ADS-B
Mon 07:29:52 PM 40.8453 -74.0442 146° Southeast 445 512 18,100 -545 Descending FlightAware ADS-B
Mon 07:29:59 PM 40.8327 -74.0345 150° Southeast 446 513 18,100  Level FlightAware ADS-B
Mon 07:30:06 PM 40.8191 -74.0259 154° Southeast 445 512 18,100 -500 Level FlightAware ADS-B
Mon 07:30:11 PM 40.8089 -74.0207 159° South 443 510 18,000 -667 Descending FlightAware ADS-B
Mon 07:30:15 PM 40.8022 -74.0176 161° South 442 509 18,000 -1,200 Level FlightAware ADS-B
Mon 07:30:16 PM 40.7993 -74.0164 163° South 441 507 17,900 -1,000 Descending FlightAware ADS-B
Mon 07:30:33 PM 40.7661 -74.0070 168° South 430 495 17,700 -1,125 Descending FlightAware ADS-B
Mon 07:30:48 PM 40.7376 -74.0021 173° South 436 502 17,300 -1,935 Descending FlightAware ADS-B
Mon 07:31:04 PM 40.7064 -73.9971 173° South 413 475 16,700 -2,377 Descending FlightAware ADS-B
Mon 07:31:41 PM 40.6377 -73.9867 173° South 402 463 15,200 -2,478 Descending FlightAware ADS-B
Mon 07:31:50 PM 40.6206 -73.9842 174° South 436 502 14,800 -2,595 Descending FlightAware ADS-B
Mon 07:32:18 PM 40.5697 -73.9769 174° South 394 453 13,600 -2,136 Descending FlightAware ADS-B
Mon 07:32:49 PM 40.5137 -73.9644 170° South 392 451 12,700 -2,280 Descending FlightAware ADS-B
Mon 07:33:08 PM 40.4826 -73.9456 155° Southeast 388 447 11,700 -2,571 Descending FlightAware ADS-B
Mon 07:33:31 PM 40.4506 -73.9163 145° Southeast 364 419 10,900 -1,472 Descending FlightAware ADS-B
Mon 07:34:01 PM 40.4125 -73.8796 144° Southeast 323 372 10,400 -1,174 Descending FlightAware ADS-B
Mon 07:34:17 PM 40.3936 -73.8615 144° Southeast 308 354 10,000 -1,765 Descending FlightAware ADS-B
Mon 07:34:35 PM 40.3731 -73.8418 144° Southeast 297 342 9,400 -2,222 Descending FlightAware ADS-B
Mon 07:34:44 PM 40.3645 -73.8312 137° Southeast 297 342 9,000 -2,333 Descending FlightAware ADS-B
Mon 07:34:53 PM 40.3578 -73.8179 123° Southeast 296 341 8,700 -2,160 Descending FlightAware ADS-B
Mon 07:35:09 PM 40.3499 -73.7904 111° Southeast 296 341 8,100 -1,500 Descending FlightAware ADS-B
Mon 07:35:25 PM 40.3435 -73.7642 108° East 296 341 7,900 -387 Descending FlightAware ADS-B
Mon 07:35:40 PM 40.3379 -73.7372 105° East 296 341 7,900 -414 Level FlightAware ADS-B
Mon 07:35:54 PM 40.3388 -73.7133 87° East 293 337 7,700 -857 Descending FlightAware ADS-B
Mon 07:36:01 PM 40.3421 -73.7018 69° East 288 331 7,600 -750 Descending FlightAware ADS-B
Mon 07:36:10 PM 40.3488 -73.6884 57° Northeast 284 327 7,500 -1,154 Descending FlightAware ADS-B
Mon 07:36:27 PM 40.3636 -73.6655 50° Northeast 284 327 7,100 -1,235 Descending FlightAware ADS-B
Mon 07:36:44 PM 40.3779 -73.6437 49° Northeast 284 327 6,800 -1,333 Descending FlightAware ADS-B
Mon 07:37:03 PM 40.3942 -73.6192 49° Northeast 286 329 6,300 -1,500 Descending FlightAware ADS-B
Mon 07:37:24 PM 40.4160 -73.5975 37° Northeast 282 325 5,800 -1,241 Descending FlightAware ADS-B
Mon 07:38:01 PM 40.4560 -73.5670 30° Northeast 277 319 5,100 -1,179 Descending FlightAware ADS-B
Mon 07:38:20 PM 40.4780 -73.5500 30° Northeast 276 318 4,700 -1,317 Descending FlightAware ADS-B
Mon 07:38:42 PM 40.5030 -73.5310 30° Northeast 274 315 4,200 -1,171 Descending FlightAware ADS-B
Mon 07:39:01 PM 40.5230 -73.5160 30° Northeast 272 313 3,900 -409 Descending FlightAware ADS-B
Mon 07:39:26 PM 40.5500 -73.4950 31° Northeast 268 308 3,900 -267 Level FlightAware ADS-B
Mon 07:39:46 PM 40.5720 -73.4790 29° Northeast 265 305 3,700 -750 Descending FlightAware ADS-B
Mon 07:40:06 PM 40.5930 -73.4630 30° Northeast 262 302 3,400 -1,024 Descending FlightAware ADS-B
Mon 07:40:27 PM 40.6160 -73.4510 22° Northeast 258 297 3,000 -1,034 Descending FlightAware ADS-B
Mon 07:40:35 PM 40.6260 -73.4500 North 256 295 2,900 -375 Descending FlightAware ADS-B
Mon 07:40:43 PM 40.6350 -73.4500 360° North 257 296 2,900  Level FlightAware ADS-B
Mon 07:41:03 PM 40.6590 -73.4510 358° North 257 296 2,900  Level FlightAware ADS-B
Mon 07:41:15 PM 40.6740 -73.4520 357° North 257 296 2,900  Level FlightAware ADS-B
Mon 07:41:32 PM 40.6940 -73.4550 354° North 254 292 2,900  Level FlightAware ADS-B
Mon 07:41:36 PM 40.6980 -73.4580 330° Northwest 252 290 2,900  Level FlightAware ADS-B
Mon 07:41:51 PM 40.7120 -73.4690 329° Northwest 251 289 2,900  Level FlightAware ADS-B
Mon 07:42:12 PM 40.7320 -73.4860 327° Northwest 250 288 2,900  Level FlightAware ADS-B
Mon 07:42:33 PM 40.7520 -73.5030 327° Northwest 228 262 2,900  Level FlightAware ADS-B
Mon 07:42:53 PM 40.7690 -73.5180 326° Northwest 213 245 2,900  Level FlightAware ADS-B
Mon 07:42:58 PM 40.7730 -73.5220 323° Northwest 211 243 2,900  Level FlightAware ADS-B
Mon 07:43:08 PM 40.7790 -73.5330 306° West 209 241 2,900  Level FlightAware ADS-B
Mon 07:43:29 PM 40.7880 -73.5560 297° West 213 245 2,900  Level FlightAware ADS-B
Mon 07:43:49 PM 40.7970 -73.5800 296° West 213 245 2,900 -167 Level FlightAware ADS-B
Mon 07:44:05 PM 40.8010 -73.5990 286° West 214 246 2,800 -533 Descending FlightAware ADS-B
Mon 07:44:34 PM 40.7900 -73.6320 246° West 213 245 2,500 -727 Descending FlightAware ADS-B
Mon 07:44:38 PM 40.7860 -73.6370 223° Southwest 213 245 2,400 -900 Descending FlightAware ADS-B
Mon 07:44:54 PM 40.7750 -73.6510 224° Southwest 209 241 2,200 -500 Descending FlightAware ADS-B
Mon 07:45:14 PM 40.7600 -73.6650 215° Southwest 197 227 2,100 -439 Descending FlightAware ADS-B
Mon 07:45:35 PM 40.7440 -73.6780 212° Southwest 188 216 1,900 -439 Descending FlightAware ADS-B
Mon 07:45:55 PM 40.7290 -73.6890 209° Southwest 178 205 1,800 -600 Descending FlightAware ADS-B
Mon 07:46:15 PM 40.7160 -73.7000 213° Southwest 171 197 1,500 -837 Descending FlightAware ADS-B
Mon 07:46:38 PM 40.7010 -73.7110 209° Southwest 145 167 1,200 -800 Descending FlightAware ADS-B
Mon 07:47:00 PM 40.6890 -73.7200 210° Southwest 130 150 900 -632 Descending FlightAware ADS-B
Mon 07:47:16 PM 40.6810 -73.7270 214° Southwest 128 147 800 -698 Descending FlightAware ADS-B
Mon 07:47:43 PM 40.6670 -73.7380 211° Southwest 126 145 400 -750 Descending FlightAware ADS-B
Mon 07:48:04 PM 40.6560 -73.7460 209° Southwest 131 151 200 -571 Descending FlightAware ADS-B
Mon 07:48:23 PM 40.6470 -73.7530 211° Southwest 129 148 -632 Descending FlightAware ADS-B
Mon 07:48:36 PM 40.6400 -73.7590 213° Southwest 125 144  Level FlightAware ADS-B

Login

Don't have an account? Register now (free) for customized features, flight alerts, and more!